Time;durP1;ratioP1;P1;durP2;ratioP2;P2;SDS_P1;SDS_P2;PMS_P1;PMS_P2;Temp;Humidity;BMP_temperature;BMP_pressure;BME280_temperature;BME280_humidity;BME280_pressure;Samples;Min_cycle;Max_cycle;Signal;HPM_P1;HPM_P2
2023/08/25 00:00:56;;;;;;;4.93;3.30;;;21.50;99.90;;;;;;5059073;28;21031;-76
2023/08/25 00:03:25;;;;;;;3.77;3.47;;;21.50;99.90;;;;;;5057732;28;20449;-77
2023/08/25 00:05:59;;;;;;;3.50;3.30;;;21.60;99.90;;;;;;5056801;28;20564;-78
2023/08/25 00:08:28;;;;;;;3.77;3.43;;;21.50;99.90;;;;;;5058107;28;20923;-77
2023/08/25 00:10:56;;;;;;;3.37;3.07;;;21.60;99.90;;;;;;5057025;28;20430;-77
2023/08/25 00:13:24;;;;;;;3.57;3.33;;;21.50;99.90;;;;;;5056193;28;20465;-76
2023/08/25 00:15:54;;;;;;;3.47;3.13;;;21.50;99.90;;;;;;5055595;28;20450;-76
2023/08/25 00:18:22;;;;;;;3.80;3.50;;;21.50;99.90;;;;;;5055873;28;20482;-77
2023/08/25 00:20:56;;;;;;;4.87;3.27;;;21.60;99.90;;;;;;5058639;28;20485;-75
2023/08/25 00:23:24;;;;;;;3.60;3.30;;;21.60;99.90;;;;;;5060614;28;20441;-77
2023/08/25 00:25:53;;;;;;;3.40;3.20;;;21.60;99.90;;;;;;5060230;28;20454;-76
2023/08/25 00:28:21;;;;;;;3.73;3.43;;;21.60;99.90;;;;;;5058186;28;20450;-79
2023/08/25 00:30:50;;;;;;;3.37;3.07;;;21.60;99.90;;;;;;5057241;28;20453;-76
2023/08/25 00:33:30;;;;;;;3.53;3.30;;;21.60;99.90;;;;;;5055978;28;20454;-76
2023/08/25 00:36:11;;;;;;;;;;;;;;;;;;;;;
2023/08/25 00:38:39;;;;;;;3.53;3.23;;;21.70;99.90;;;;;;5055401;28;21045;-75
2023/08/25 00:41:14;;;;;;;3.97;3.57;;;21.60;99.90;;;;;;5056579;28;20483;-75
2023/08/25 00:43:58;;;;;;;7.57;3.30;;;21.60;99.90;;;;;;5056290;28;20476;-76
2023/08/25 00:46:37;;;;;;;3.87;3.67;;;21.70;99.90;;;;;;5057409;28;20497;-76
2023/08/25 00:49:15;;;;;;;3.43;3.13;;;21.70;99.90;;;;;;5059123;28;20461;-75
2023/08/25 00:51:45;;;;;;;3.43;3.13;;;21.70;99.90;;;;;;5055726;28;20430;-76
2023/08/25 00:54:14;;;;;;;4.63;3.57;;;21.70;99.90;;;;;;5056255;28;20476;-76
2023/08/25 00:56:46;;;;;;;3.80;3.50;;;21.70;99.90;;;;;;5056528;28;20471;-77
2023/08/25 00:59:15;;;;;;;3.07;2.87;;;21.70;99.90;;;;;;5056854;28;20525;-76
2023/08/25 01:01:45;;;;;;;3.60;3.30;;;21.70;99.90;;;;;;5054033;28;20505;-77
2023/08/25 01:04:15;;;;;;;3.30;3.10;;;21.70;99.90;;;;;;5055873;28;20564;-76
2023/08/25 01:06:48;;;;;;;4.87;2.77;;;21.80;99.90;;;;;;5055280;28;20461;-79
2023/08/25 01:09:19;;;;;;;4.37;3.27;;;21.80;99.90;;;;;;5056115;28;20532;-78
2023/08/25 01:11:59;;;;;;;4.50;3.53;;;21.80;99.90;;;;;;5056243;28;20446;-77
2023/08/25 01:14:34;;;;;;;2.90;2.70;;;21.70;99.90;;;;;;5055699;28;20440;-77
2023/08/25 01:17:09;;;;;;;3.00;2.90;;;21.80;99.90;;;;;;5054034;28;20456;-78
2023/08/25 01:19:53;;;;;;;3.30;2.60;;;21.80;99.90;;;;;;5055758;28;20560;-76
2023/08/25 01:22:32;;;;;;;3.00;2.70;;;21.80;99.90;;;;;;5054965;28;20523;-75
2023/08/25 01:25:36;;;;;;;3.40;3.10;;;21.80;99.90;;;;;;5055636;28;20426;-75
2023/08/25 01:28:06;;;;;;;5.13;3.40;;;21.80;99.90;;;;;;5055097;28;20512;-78
2023/08/25 01:30:44;;;;;;;3.40;3.10;;;21.80;99.90;;;;;;5056823;28;20449;-78
2023/08/25 01:33:12;;;;;;;4.80;3.20;;;21.80;99.90;;;;;;5057028;28;20456;-75
2023/08/25 01:35:58;;;;;;;3.60;3.30;;;21.80;99.90;;;;;;5057062;28;20454;-75
2023/08/25 01:38:32;;;;;;;4.10;2.83;;;21.90;99.90;;;;;;5061910;28;20714;-77
2023/08/25 01:41:08;;;;;;;2.87;2.63;;;21.90;99.90;;;;;;5066594;28;20545;-76
2023/08/25 01:43:39;;;;;;;3.40;3.10;;;21.90;99.90;;;;;;5062932;28;20453;-76
2023/08/25 01:46:14;;;;;;;3.63;3.33;;;21.90;99.90;;;;;;5062517;28;20477;-78
2023/08/25 01:48:44;;;;;;;2.70;2.53;;;21.90;99.90;;;;;;5059773;28;20513;-77
2023/08/25 01:51:12;;;;;;;3.00;2.80;;;22.00;99.90;;;;;;5057213;28;20460;-77
2023/08/25 01:53:40;;;;;;;3.20;2.90;;;22.00;99.90;;;;;;5060554;28;20449;-76
2023/08/25 01:56:08;;;;;;;3.27;3.07;;;22.00;99.90;;;;;;5056332;28;20480;-76
2023/08/25 01:58:45;;;;;;;3.00;2.80;;;22.00;99.90;;;;;;5056815;28;20460;-75
2023/08/25 02:01:13;;;;;;;3.80;3.17;;;22.00;99.90;;;;;;5056686;28;20500;-76
2023/08/25 02:03:42;;;;;;;3.90;3.60;;;22.00;99.90;;;;;;5056518;28;20450;-75
2023/08/25 02:06:10;;;;;;;2.80;2.70;;;22.00;99.90;;;;;;5056009;28;20470;-76
2023/08/25 02:08:38;;;;;;;4.53;3.27;;;22.10;99.90;;;;;;5056846;28;20843;-76
2023/08/25 02:11:07;;;;;;;2.77;2.60;;;22.00;99.90;;;;;;5056028;28;20449;-76
2023/08/25 02:13:35;;;;;;;5.50;2.80;;;22.00;99.90;;;;;;5055281;28;20793;-74
2023/08/25 02:16:07;;;;;;;3.23;2.93;;;22.00;99.90;;;;;;5058135;28;20473;-74
2023/08/25 02:18:35;;;;;;;2.93;2.70;;;22.00;99.90;;;;;;5056491;28;20426;-76
2023/08/25 02:21:03;;;;;;;3.20;2.90;;;22.00;99.90;;;;;;5056335;28;20473;-75
2023/08/25 02:23:31;;;;;;;3.53;3.27;;;22.00;99.90;;;;;;5055224;28;20448;-75
2023/08/25 02:25:59;;;;;;;3.77;3.20;;;22.00;99.90;;;;;;5055033;28;20533;-76
2023/08/25 02:28:26;;;;;;;3.63;3.00;;;22.00;99.90;;;;;;5054922;28;20453;-76
2023/08/25 02:30:56;;;;;;;6.00;3.10;;;22.10;99.90;;;;;;5054528;28;20441;-76
2023/08/25 02:33:32;;;;;;;3.10;2.90;;;22.10;99.90;;;;;;5053421;28;20877;-75
2023/08/25 02:36:00;;;;;;;3.07;2.77;;;22.00;99.90;;;;;;5054604;28;20530;-76
2023/08/25 02:38:31;;;;;;;3.60;2.83;;;22.00;99.90;;;;;;5055156;28;20453;-76
2023/08/25 02:40:59;;;;;;;3.17;2.87;;;22.00;99.90;;;;;;5055503;28;20628;-76
2023/08/25 02:43:29;;;;;;;3.37;3.17;;;22.10;99.90;;;;;;5059205;28;20949;-78
2023/08/25 02:46:00;;;;;;;4.43;3.20;;;22.00;99.90;;;;;;5058569;28;20550;-77
2023/08/25 02:48:30;;;;;;;3.87;3.43;;;22.00;99.90;;;;;;5062146;28;20553;-77
2023/08/25 02:50:58;;;;;;;3.13;2.90;;;22.00;99.90;;;;;;5065703;28;20441;-77
2023/08/25 02:53:26;;;;;;;3.63;2.90;;;22.00;99.90;;;;;;5061415;28;20481;-77
2023/08/25 02:55:57;;;;;;;4.00;3.07;;;22.00;99.90;;;;;;5061529;28;20505;-75
2023/08/25 02:58:25;;;;;;;3.00;2.80;;;22.00;99.90;;;;;;5060421;28;20457;-78
2023/08/25 03:00:53;;;;;;;3.27;2.93;;;22.00;99.90;;;;;;5059819;28;20462;-75
2023/08/25 03:03:21;;;;;;;3.43;2.83;;;21.70;99.90;;;;;;5059187;28;20477;-75
2023/08/25 03:05:51;;;;;;;3.73;3.20;;;21.90;99.90;;;;;;5060545;28;20499;-78
2023/08/25 03:08:20;;;;;;;3.80;3.50;;;21.90;99.90;;;;;;5061391;28;21083;-77
2023/08/25 03:10:50;;;;;;;4.80;3.67;;;21.90;99.90;;;;;;5058650;28;20954;-76
2023/08/25 03:13:19;;;;;;;5.13;3.23;;;21.80;99.90;;;;;;5062065;28;20510;-76
2023/08/25 03:15:52;;;;;;;5.13;3.13;;;21.80;99.90;;;;;;5061082;28;20472;-76
2023/08/25 03:18:19;;;;;;;3.27;2.97;;;21.80;99.90;;;;;;5062602;28;20464;-78
2023/08/25 03:20:52;;;;;;;5.27;2.97;;;21.80;99.90;;;;;;5058827;28;20516;-76
2023/08/25 03:23:23;;;;;;;3.30;3.10;;;21.80;99.90;;;;;;5059267;28;20826;-75
2023/08/25 03:25:51;;;;;;;5.30;3.40;;;21.80;99.90;;;;;;5056045;28;20453;-76
2023/08/25 03:28:19;;;;;;;3.67;3.37;;;21.80;99.90;;;;;;5056313;28;20949;-74
2023/08/25 03:30:46;;;;;;;3.40;3.10;;;21.80;99.90;;;;;;5056130;28;20829;-76
2023/08/25 03:33:17;;;;;;;4.43;3.03;;;21.80;99.90;;;;;;5057287;28;20445;-76
2023/08/25 03:35:44;;;;;;;3.07;2.87;;;21.80;99.90;;;;;;5057180;28;20971;-76
2023/08/25 03:38:14;;;;;;;5.23;3.30;;;21.70;99.90;;;;;;5057643;28;20856;-76
2023/08/25 03:40:47;;;;;;;3.70;3.40;;;21.80;99.90;;;;;;5057928;28;20437;-75
2023/08/25 03:43:15;;;;;;;3.00;2.80;;;21.70;99.90;;;;;;5056668;28;20477;-75
2023/08/25 03:45:43;;;;;;;6.30;3.50;;;21.70;99.90;;;;;;5057432;28;21025;-76
2023/08/25 03:48:10;;;;;;;3.47;3.17;;;21.70;99.90;;;;;;5056671;28;20453;-75
2023/08/25 03:50:38;;;;;;;3.90;3.23;;;21.60;99.90;;;;;;5055772;28;20445;-77
2023/08/25 03:53:06;;;;;;;5.27;2.90;;;21.60;99.90;;;;;;5056370;28;20467;-75
2023/08/25 03:55:36;;;;;;;4.30;3.17;;;21.60;99.90;;;;;;5056850;28;20464;-75
2023/08/25 03:58:03;;;;;;;4.20;3.90;;;21.60;99.90;;;;;;5056808;28;20449;-75
2023/08/25 04:00:31;;;;;;;3.40;3.10;;;21.60;99.90;;;;;;5056624;28;20449;-76
2023/08/25 04:03:04;;;;;;;3.90;3.60;;;21.60;99.90;;;;;;5059102;28;20503;-76
2023/08/25 04:05:38;;;;;;;4.20;3.40;;;21.50;99.90;;;;;;5057852;28;21224;-75
2023/08/25 04:08:06;;;;;;;8.10;3.77;;;21.50;99.90;;;;;;5057496;28;20448;-75
2023/08/25 04:10:38;;;;;;;3.37;3.10;;;21.50;99.90;;;;;;5056721;28;20499;-77
2023/08/25 04:13:09;;;;;;;3.43;3.13;;;21.50;99.90;;;;;;5055714;28;20509;-77
2023/08/25 04:15:37;;;;;;;6.90;3.70;;;21.50;99.90;;;;;;5055711;28;20824;-78
2023/08/25 04:18:06;;;;;;;3.57;3.23;;;21.50;99.90;;;;;;5054928;28;20525;-76
2023/08/25 04:20:34;;;;;;;4.50;4.20;;;21.50;99.90;;;;;;5054646;28;20453;-76
2023/08/25 04:23:08;;;;;;;4.37;4.00;;;21.50;99.90;;;;;;5055662;28;20539;-77
2023/08/25 04:25:41;;;;;;;5.60;3.73;;;21.50;99.90;;;;;;5055704;28;20506;-78
2023/08/25 04:28:09;;;;;;;3.90;3.60;;;21.50;99.90;;;;;;5056097;28;20450;-75
2023/08/25 04:30:38;;;;;;;3.90;3.60;;;21.50;99.90;;;;;;5055128;28;20484;-76
2023/08/25 04:33:06;;;;;;;3.93;3.10;;;21.50;99.90;;;;;;5055759;28;20446;-77
2023/08/25 04:35:35;;;;;;;4.43;3.27;;;21.50;99.90;;;;;;5057043;28;20512;-74
2023/08/25 04:38:02;;;;;;;3.80;3.30;;;21.50;99.90;;;;;;5056557;28;20814;-77
2023/08/25 04:40:36;;;;;;;4.40;3.63;;;21.50;99.90;;;;;;5058745;28;20481;-76
2023/08/25 04:43:05;;;;;;;3.83;3.50;;;21.50;99.90;;;;;;5062773;28;20466;-77
2023/08/25 04:45:34;;;;;;;4.97;4.27;;;21.50;99.90;;;;;;5062401;28;20429;-77
2023/08/25 04:48:02;;;;;;;7.03;3.67;;;21.50;99.90;;;;;;5054939;28;20527;-76
2023/08/25 04:50:34;;;;;;;3.70;3.40;;;21.50;99.90;;;;;;5055157;28;20519;-78
2023/08/25 04:53:02;;;;;;;4.07;3.50;;;21.50;99.90;;;;;;5054241;28;20995;-76
2023/08/25 04:55:31;;;;;;;4.10;3.67;;;21.50;99.90;;;;;;5054108;28;20828;-77
2023/08/25 04:58:02;;;;;;;3.60;3.27;;;21.50;99.90;;;;;;5055322;28;20981;-77
2023/08/25 05:00:32;;;;;;;5.40;4.90;;;21.50;99.90;;;;;;5055160;28;20487;-78
2023/08/25 05:03:01;;;;;;;3.90;3.60;;;21.60;99.90;;;;;;5055364;28;20473;-75
2023/08/25 05:05:32;;;;;;;4.00;3.60;;;21.60;99.90;;;;;;5055767;28;20474;-77
2023/08/25 05:08:04;;;;;;;4.47;4.07;;;21.60;99.90;;;;;;5056791;28;20477;-77
2023/08/25 05:10:49;;;;;;;4.50;3.10;;;21.60;99.90;;;;;;5059747;28;20544;-76
2023/08/25 05:13:27;;;;;;;4.23;3.40;;;21.60;99.90;;;;;;5058271;28;20449;-76
2023/08/25 05:15:59;;;;;;;4.60;3.80;;;21.60;99.90;;;;;;5060352;28;20461;-76
2023/08/25 05:18:28;;;;;;;4.10;3.63;;;21.80;99.90;;;;;;5060837;28;20434;-77
2023/08/25 05:21:00;;;;;;;6.87;4.47;;;21.70;99.90;;;;;;5062226;28;20491;-77
2023/08/25 05:23:28;;;;;;;3.80;3.50;;;21.70;99.90;;;;;;5060544;28;20469;-78
2023/08/25 05:25:58;;;;;;;3.87;3.50;;;21.70;99.90;;;;;;5059874;28;20474;-77
2023/08/25 05:28:26;;;;;;;4.50;3.50;;;21.80;99.90;;;;;;5060035;28;20449;-76
2023/08/25 05:30:57;;;;;;;5.40;4.07;;;21.90;99.90;;;;;;5058667;28;20445;-78
2023/08/25 05:33:25;;;;;;;4.10;3.80;;;21.90;99.90;;;;;;5058835;28;20442;-77
2023/08/25 05:35:53;;;;;;;4.90;3.40;;;22.00;99.90;;;;;;5056896;28;20449;-77
2023/08/25 05:38:20;;;;;;;4.80;3.73;;;22.00;99.90;;;;;;5057566;28;20438;-77
2023/08/25 05:40:47;;;;;;;4.73;4.33;;;22.10;99.90;;;;;;5057467;28;20453;-75
2023/08/25 05:43:15;;;;;;;4.57;3.70;;;22.20;99.90;;;;;;5059813;28;20477;-75
2023/08/25 05:45:43;;;;;;;3.70;3.40;;;22.30;99.90;;;;;;5064953;28;20453;-76
2023/08/25 05:48:14;;;;;;;6.20;3.70;;;22.30;99.90;;;;;;5063669;28;20473;-78
2023/08/25 05:50:45;;;;;;;3.77;3.47;;;22.30;99.90;;;;;;5057058;28;20449;-77
2023/08/25 05:53:13;;;;;;;5.13;3.90;;;22.30;99.90;;;;;;5055936;28;20448;-76
2023/08/25 05:55:43;;;;;;;5.70;3.80;;;22.40;99.90;;;;;;5055615;28;20585;-77
2023/08/25 05:58:14;;;;;;;3.50;3.23;;;22.40;99.90;;;;;;5056690;28;20524;-78
2023/08/25 06:00:41;;;;;;;4.13;3.67;;;22.40;99.90;;;;;;5055833;28;20863;-76
2023/08/25 06:03:09;;;;;;;4.20;3.80;;;22.40;99.90;;;;;;5056529;28;20480;-78
2023/08/25 06:05:40;;;;;;;4.73;4.37;;;22.50;99.90;;;;;;5056787;28;20853;-76
2023/08/25 06:08:11;;;;;;;5.07;3.50;;;22.50;99.90;;;;;;5058481;28;20440;-77
2023/08/25 06:10:38;;;;;;;4.33;3.50;;;22.50;99.90;;;;;;5057548;28;20460;-75
2023/08/25 06:13:08;;;;;;;3.93;3.27;;;22.50;99.90;;;;;;5057127;28;20448;-78
2023/08/25 06:15:38;;;;;;;3.67;3.10;;;22.50;99.90;;;;;;5057229;28;20464;-76
2023/08/25 06:18:06;;;;;;;8.83;3.83;;;22.50;99.90;;;;;;5056814;28;20881;-77
2023/08/25 06:20:34;;;;;;;4.30;3.90;;;22.50;99.90;;;;;;5057509;28;20471;-78
2023/08/25 06:23:03;;;;;;;3.87;3.50;;;22.50;99.90;;;;;;5056494;28;20473;-78
2023/08/25 06:25:31;;;;;;;5.43;3.47;;;22.40;99.90;;;;;;5056183;28;20449;-76
2023/08/25 06:27:59;;;;;;;5.13;3.67;;;22.40;99.90;;;;;;5058975;28;20488;-76
2023/08/25 06:30:29;;;;;;;5.03;4.10;;;22.40;99.90;;;;;;5058489;28;20488;-76
2023/08/25 06:32:57;;;;;;;4.67;3.63;;;22.40;99.90;;;;;;5056293;28;20905;-79
2023/08/25 06:35:24;;;;;;;3.77;3.47;;;22.40;99.90;;;;;;5056956;28;20451;-77
2023/08/25 06:37:52;;;;;;;6.03;4.20;;;22.40;99.90;;;;;;5055913;28;20515;-77
2023/08/25 06:40:34;;;;;;;4.30;3.87;;;22.30;99.90;;;;;;5058856;28;20511;-78
2023/08/25 06:43:24;;;;;;;4.40;4.00;;;22.30;99.90;;;;;;5059841;28;20483;-77
2023/08/25 06:45:52;;;;;;;4.57;4.10;;;22.40;99.90;;;;;;5061420;28;20537;-78
2023/08/25 06:48:20;;;;;;;6.53;4.40;;;22.30;99.90;;;;;;5060220;28;20453;-76
2023/08/25 06:50:50;;;;;;;8.13;4.67;;;22.30;99.90;;;;;;5059600;28;20973;-76
2023/08/25 06:53:23;;;;;;;5.00;4.27;;;22.30;99.90;;;;;;5059637;28;20532;-76
2023/08/25 06:55:57;;;;;;;4.73;4.30;;;22.20;99.90;;;;;;5063614;28;20445;-76
2023/08/25 06:58:29;;;;;;;4.83;4.43;;;22.10;99.90;;;;;;5064394;28;20885;-77
2023/08/25 07:01:00;;;;;;;4.60;4.10;;;21.90;99.90;;;;;;5061963;28;20454;-78
2023/08/25 07:03:28;;;;;;;5.23;4.80;;;21.80;99.90;;;;;;5060563;28;20492;-76
2023/08/25 07:05:58;;;;;;;7.10;4.60;;;21.80;99.90;;;;;;5061408;28;20453;-77
2023/08/25 07:08:26;;;;;;;4.73;4.40;;;21.70;99.90;;;;;;5055531;28;20450;-77
2023/08/25 07:10:58;;;;;;;5.07;4.53;;;21.60;99.90;;;;;;5053623;28;20526;-77
2023/08/25 07:13:27;;;;;;;4.60;4.20;;;21.40;99.90;;;;;;5054512;28;20442;-76
2023/08/25 07:15:58;;;;;;;4.90;4.53;;;21.30;99.90;;;;;;5054541;28;20472;-78
2023/08/25 07:18:29;;;;;;;5.40;4.90;;;21.20;99.90;;;;;;5056380;28;20445;-78
2023/08/25 07:20:57;;;;;;;4.97;4.57;;;21.20;99.90;;;;;;5056667;28;20425;-77
2023/08/25 07:23:25;;;;;;;5.73;5.03;;;21.10;99.90;;;;;;5054139;28;20516;-79
2023/08/25 07:25:58;;;;;;;7.60;4.23;;;21.20;99.90;;;;;;5054469;28;20948;-76
2023/08/25 07:28:28;;;;;;;5.37;4.50;;;21.20;99.90;;;;;;5053829;28;20570;-79
2023/08/25 07:31:00;;;;;;;4.77;4.47;;;21.20;99.90;;;;;;5053596;28;20450;-77
2023/08/25 07:33:29;;;;;;;5.90;5.23;;;21.20;99.90;;;;;;5054106;28;20545;-76
2023/08/25 07:39:03;;;;;;;8.47;4.97;;;21.00;99.90;;;;;;5055558;28;21006;-78
2023/08/25 07:41:47;;;;;;;5.63;4.50;;;21.00;99.90;;;;;;5053518;28;20864;-77
2023/08/25 07:44:18;;;;;;;5.23;4.70;;;21.00;99.90;;;;;;5053675;28;20545;-78
2023/08/25 07:46:47;;;;;;;7.33;5.40;;;21.00;99.90;;;;;;5055069;28;20492;-78
2023/08/25 07:49:17;;;;;;;6.17;5.30;;;21.00;99.90;;;;;;5057563;28;20498;-78
2023/08/25 07:51:46;;;;;;;5.67;5.07;;;21.00;99.90;;;;;;5058240;28;20437;-76
2023/08/25 07:54:15;;;;;;;4.50;4.20;;;21.00;99.90;;;;;;5057096;28;20968;-77
2023/08/25 07:56:46;;;;;;;7.70;5.00;;;21.00;99.90;;;;;;5055549;28;20584;-79
2023/08/25 07:59:17;;;;;;;6.87;4.90;;;20.90;99.90;;;;;;5056440;28;20465;-77
2023/08/25 08:01:50;;;;;;;5.37;4.87;;;20.80;99.90;;;;;;5056307;28;20454;-77
2023/08/25 08:04:18;;;;;;;4.77;4.27;;;20.80;99.90;;;;;;5057332;28;20480;-78
2023/08/25 08:06:47;;;;;;;5.57;5.13;;;20.80;99.90;;;;;;5052388;28;20461;-79
2023/08/25 08:09:17;;;;;;;5.20;4.70;;;20.80;99.90;;;;;;5052592;28;20453;-78
2023/08/25 08:11:47;;;;;;;5.30;4.80;;;20.80;99.90;;;;;;5055428;28;20450;-80
2023/08/25 08:14:15;;;;;;;5.23;4.73;;;20.70;99.90;;;;;;5055817;28;20524;-77
2023/08/25 08:16:47;;;;;;;6.03;4.77;;;20.70;99.90;;;;;;5056556;28;20480;-79
2023/08/25 08:19:15;;;;;;;5.97;4.40;;;20.70;99.90;;;;;;5055311;28;20540;-77
2023/08/25 08:21:43;;;;;;;5.33;4.40;;;20.70;99.90;;;;;;5055184;28;20437;-77
2023/08/25 08:24:17;;;;;;;6.13;4.83;;;20.70;99.90;;;;;;5055589;28;20560;-78
2023/08/25 08:26:48;;;;;;;5.17;4.77;;;20.60;99.90;;;;;;5055497;28;20465;-78
2023/08/25 08:29:16;;;;;;;6.33;4.87;;;20.60;99.90;;;;;;5057755;28;20437;-78
2023/08/25 08:31:47;;;;;;;5.17;4.63;;;20.60;99.90;;;;;;5056658;28;20682;-77
2023/08/25 08:34:15;;;;;;;5.30;4.80;;;20.60;99.90;;;;;;5055713;28;20445;-77
2023/08/25 08:36:47;;;;;;;5.57;5.07;;;20.60;99.90;;;;;;5055533;28;20474;-78
2023/08/25 08:39:18;;;;;;;7.97;5.27;;;20.60;99.90;;;;;;5053671;28;20452;-77
2023/08/25 08:41:53;;;;;;;6.00;5.40;;;20.60;99.90;;;;;;5054116;28;20434;-77
2023/08/25 08:44:22;;;;;;;6.27;4.90;;;20.60;99.90;;;;;;5053736;28;20555;-77
2023/08/25 08:46:56;;;;;;;6.60;4.77;;;20.60;99.90;;;;;;5054451;28;20476;-77
2023/08/25 08:49:35;;;;;;;6.10;4.80;;;20.60;99.90;;;;;;5054999;28;20569;-78
2023/08/25 08:52:03;;;;;;;5.40;4.90;;;20.60;99.90;;;;;;5054448;28;20499;-75
2023/08/25 08:54:35;;;;;;;4.97;4.57;;;20.60;99.90;;;;;;5055319;28;20437;-77
2023/08/25 08:57:05;;;;;;;7.00;4.40;;;20.60;99.90;;;;;;5055415;28;20466;-77
2023/08/25 08:59:33;;;;;;;5.87;4.20;;;20.60;99.90;;;;;;5054961;28;20464;-75
2023/08/25 09:02:07;;;;;;;7.50;5.20;;;20.60;99.90;;;;;;5055795;28;20454;-78
2023/08/25 09:04:41;;;;;;;5.97;5.00;;;20.60;99.90;;;;;;5055174;28;20507;-79
2023/08/25 09:07:17;;;;;;;11.00;10.10;;;20.60;99.90;;;;;;5056241;28;20573;-78
2023/08/25 09:09:47;;;;;;;10.50;5.30;;;20.60;99.90;;;;;;5056241;28;20998;-77
2023/08/25 09:12:21;;;;;;;6.07;5.03;;;20.60;99.90;;;;;;5056007;28;20470;-78
2023/08/25 09:14:49;;;;;;;5.93;5.37;;;20.60;99.90;;;;;;5063763;28;20537;-76
2023/08/25 09:17:19;;;;;;;5.23;4.70;;;20.60;99.90;;;;;;5055779;28;20577;-77
2023/08/25 09:19:55;;;;;;;6.00;5.03;;;20.70;99.90;;;;;;5055316;28;20949;-76
2023/08/25 09:22:23;;;;;;;4.47;4.10;;;20.70;99.90;;;;;;5055516;28;20454;-77
2023/08/25 09:24:52;;;;;;;5.10;4.60;;;20.70;99.90;;;;;;5054599;28;20540;-77
2023/08/25 09:27:29;;;;;;;4.83;4.20;;;20.70;99.90;;;;;;5054541;28;20480;-77
2023/08/25 09:30:03;;;;;;;7.20;4.30;;;20.80;99.90;;;;;;5055698;28;20472;-77
2023/08/25 09:32:34;;;;;;;8.87;4.80;;;20.80;99.90;;;;;;5055540;28;20548;-82
2023/08/25 09:35:12;;;;;;;4.07;3.77;;;20.90;99.90;;;;;;5054917;28;20922;-77
2023/08/25 09:37:53;;;;;;;4.63;4.13;;;21.00;99.90;;;;;;5056772;28;20461;-76
2023/08/25 09:40:21;;;;;;;5.37;4.67;;;21.10;99.90;;;;;;5060377;28;20533;-78
2023/08/25 09:42:57;;;;;;;5.03;4.33;;;21.30;99.90;;;;;;5063827;28;20511;-78
2023/08/25 09:45:32;;;;;;;5.03;4.53;;;21.40;99.90;;;;;;5067561;28;20877;-77
2023/08/25 09:48:14;;;;;;;5.40;4.33;;;21.50;99.90;;;;;;5066490;28;20537;-76
2023/08/25 09:50:46;;;;;;;4.27;3.87;;;21.50;99.90;;;;;;5063798;28;20478;-80
2023/08/25 09:53:17;;;;;;;4.30;3.90;;;21.50;99.90;;;;;;5061895;28;20445;-78
2023/08/25 09:55:46;;;;;;;4.70;4.30;;;21.50;99.90;;;;;;5064008;28;20452;-78
2023/08/25 09:58:15;;;;;;;4.10;3.70;;;21.50;99.90;;;;;;5064662;28;20509;-79
2023/08/25 10:00:47;;;;;;;4.80;3.90;;;21.70;99.90;;;;;;5065951;28;20456;-78
2023/08/25 10:03:16;;;;;;;4.37;3.83;;;21.90;99.90;;;;;;5064483;28;20967;-78
2023/08/25 10:05:47;;;;;;;4.33;3.87;;;21.90;99.90;;;;;;5065886;28;20529;-78
2023/08/25 10:08:16;;;;;;;4.17;3.83;;;21.90;99.90;;;;;;5064381;28;20909;-79
2023/08/25 10:10:45;;;;;;;5.07;3.97;;;21.90;99.90;;;;;;5061697;28;20476;-79
2023/08/25 10:13:18;;;;;;;4.63;4.23;;;21.90;99.90;;;;;;5059931;28;20452;-78
2023/08/25 10:15:48;;;;;;;4.77;4.10;;;22.00;99.90;;;;;;5063177;28;20414;-78
2023/08/25 10:18:17;;;;;;;4.43;4.03;;;22.00;99.90;;;;;;5061720;28;20455;-77
2023/08/25 10:20:46;;;;;;;5.20;4.80;;;22.10;99.90;;;;;;5060113;28;20860;-78
2023/08/25 10:23:18;;;;;;;4.90;4.10;;;22.20;99.90;;;;;;5058950;28;20493;-78
2023/08/25 10:25:53;;;;;;;4.03;3.70;;;22.30;99.90;;;;;;5059125;28;20462;-78
2023/08/25 10:28:22;;;;;;;4.00;3.70;;;22.50;99.90;;;;;;5059125;28;20472;-78
2023/08/25 10:30:55;;;;;;;5.37;3.83;;;22.60;99.90;;;;;;5059172;28;20544;-77
2023/08/25 10:33:49;;;;;;;5.57;3.90;;;22.60;99.90;;;;;;5058757;28;20453;-75
2023/08/25 10:36:24;;;;;;;5.03;4.40;;;22.60;99.90;;;;;;5056566;28;20501;-78
2023/08/25 10:39:13;;;;;;;3.97;3.67;;;22.60;99.90;;;;;;5060105;28;20453;-77
2023/08/25 10:41:43;;;;;;;4.00;3.60;;;22.60;99.90;;;;;;5057465;28;20449;-75
2023/08/25 10:44:28;;;;;;;4.10;3.80;;;22.90;99.90;;;;;;5060186;28;20468;-76
2023/08/25 10:47:03;;;;;;;5.43;4.47;;;22.60;99.90;;;;;;5060532;28;20550;-79
2023/08/25 10:49:39;;;;;;;4.87;4.40;;;22.60;99.90;;;;;;5059032;28;20464;-76
2023/08/25 10:52:21;;;;;;;8.63;7.87;;;22.40;99.90;;;;;;5058515;28;21196;-78
2023/08/25 10:54:52;;;;;;;4.70;3.80;;;22.70;99.90;;;;;;5065840;28;20480;-76
2023/08/25 10:57:43;;;;;;;4.40;4.10;;;22.70;99.90;;;;;;5062002;28;20540;-76
2023/08/25 11:00:30;;;;;;;3.90;3.60;;;22.70;99.90;;;;;;5061132;28;20454;-77
2023/08/25 11:03:02;;;;;;;5.43;3.80;;;22.80;99.90;;;;;;5055863;28;20830;-78
2023/08/25 11:05:46;;;;;;;4.27;3.97;;;22.80;99.90;;;;;;5057539;28;20469;-78
2023/08/25 11:08:41;;;;;;;4.47;4.07;;;22.90;99.90;;;;;;5060069;28;20425;-79
2023/08/25 11:11:13;;;;;;;4.63;4.23;;;23.00;99.90;;;;;;5058160;28;20457;-76
2023/08/25 11:13:42;;;;;;;4.10;3.90;;;23.10;99.90;;;;;;5057045;28;20450;-76
2023/08/25 11:16:14;;;;;;;3.97;3.70;;;23.20;99.90;;;;;;5058088;28;20625;-75
2023/08/25 11:18:45;;;;;;;4.27;3.80;;;23.20;99.90;;;;;;5057885;28;20469;-77
2023/08/25 11:21:17;;;;;;;4.20;3.90;;;23.20;99.90;;;;;;5059999;28;20453;-76
2023/08/25 11:23:46;;;;;;;4.90;4.47;;;23.30;99.90;;;;;;5058834;28;20449;-76
2023/08/25 11:26:21;;;;;;;4.27;3.97;;;23.30;99.90;;;;;;5058124;28;20465;-77
2023/08/25 11:28:53;;;;;;;5.73;3.70;;;23.40;99.90;;;;;;5055702;28;20453;-76
2023/08/25 11:31:24;;;;;;;4.77;4.47;;;23.40;99.90;;;;;;5054667;28;20454;-77
2023/08/25 11:33:59;;;;;;;4.60;4.30;;;23.50;99.90;;;;;;5057579;28;20422;-77
2023/08/25 11:36:27;;;;;;;4.93;4.53;;;23.70;99.90;;;;;;5057016;28;20473;-75
2023/08/25 11:38:57;;;;;;;4.77;4.40;;;23.60;99.90;;;;;;5055655;28;20822;-78
2023/08/25 11:41:27;;;;;;;5.03;4.73;;;23.70;99.90;;;;;;5055432;28;20491;-77
2023/08/25 11:44:01;;;;;;;6.03;4.63;;;23.80;99.90;;;;;;5056004;28;20483;-75
2023/08/25 11:46:35;;;;;;;5.00;4.60;;;23.80;99.90;;;;;;5056741;28;20474;-74
2023/08/25 11:49:13;;;;;;;4.23;3.93;;;23.80;99.90;;;;;;5059677;28;20452;-77
2023/08/25 11:51:45;;;;;;;4.83;4.43;;;23.80;99.90;;;;;;5062218;28;20484;-77
2023/08/25 11:54:13;;;;;;;4.90;4.50;;;23.80;99.90;;;;;;5063625;28;20480;-76
2023/08/25 11:56:51;;;;;;;6.13;4.10;;;23.90;99.90;;;;;;5061955;28;20488;-76
2023/08/25 11:59:21;;;;;;;4.80;4.40;;;23.90;99.90;;;;;;5059711;28;20470;-76
2023/08/25 12:01:55;;;;;;;5.50;5.10;;;24.00;99.90;;;;;;5059275;28;20573;-77
2023/08/25 12:04:26;;;;;;;4.70;4.30;;;24.40;99.90;;;;;;5059000;28;20469;-76
2023/08/25 12:07:01;;;;;;;4.60;4.30;;;24.20;99.90;;;;;;5059566;28;20488;-77
2023/08/25 12:09:29;;;;;;;5.77;4.80;;;24.40;99.90;;;;;;5060371;28;20479;-77
2023/08/25 12:12:04;;;;;;;5.03;4.63;;;24.40;99.90;;;;;;5059916;28;20445;-78
2023/08/25 12:14:33;;;;;;;4.93;4.53;;;24.40;99.90;;;;;;5060199;28;20436;-77
2023/08/25 12:17:03;;;;;;;5.27;4.87;;;24.40;99.90;;;;;;5058958;28;20465;-79
2023/08/25 12:19:31;;;;;;;5.30;4.80;;;24.50;99.90;;;;;;5059082;28;20488;-77
2023/08/25 12:22:05;;;;;;;5.07;4.67;;;24.50;99.90;;;;;;5058494;28;20442;-79
2023/08/25 12:24:39;;;;;;;5.23;4.73;;;24.50;99.90;;;;;;5058251;28;20503;-78
2023/08/25 12:27:07;;;;;;;5.70;5.30;;;24.50;99.90;;;;;;5057857;28;20465;-76
2023/08/25 12:29:37;;;;;;;5.40;4.90;;;24.60;99.90;;;;;;5057831;28;20457;-76
2023/08/25 12:32:08;;;;;;;5.90;5.20;;;24.60;99.90;;;;;;5056847;28;20437;-77
2023/08/25 12:34:36;;;;;;;4.87;4.57;;;24.60;99.90;;;;;;5057707;28;20446;-76
2023/08/25 12:37:05;;;;;;;6.23;5.63;;;24.70;99.90;;;;;;5058738;28;20481;-77
2023/08/25 12:39:42;;;;;;;5.27;4.77;;;24.80;99.90;;;;;;5058995;28;20445;-78
2023/08/25 12:42:16;;;;;;;5.80;5.30;;;24.80;99.90;;;;;;5059584;28;20541;-77
2023/08/25 12:44:48;;;;;;;5.50;4.90;;;24.90;99.90;;;;;;5057732;28;20480;-76
2023/08/25 12:47:21;;;;;;;5.83;5.40;;;24.90;99.90;;;;;;5058895;28;20473;-78
2023/08/25 12:49:50;;;;;;;7.87;5.50;;;25.00;99.90;;;;;;5062329;28;20446;-78
2023/08/25 12:52:21;;;;;;;5.60;5.17;;;25.00;99.90;;;;;;5061855;28;20481;-78
2023/08/25 12:54:56;;;;;;;6.00;5.50;;;25.20;99.90;;;;;;5064104;28;20976;-78
2023/08/25 12:57:40;;;;;;;7.60;5.17;;;25.30;99.90;;;;;;5067496;28;20481;-77
2023/08/25 13:00:10;;;;;;;5.60;5.10;;;25.50;99.90;;;;;;5067021;28;20519;-80
2023/08/25 13:02:40;;;;;;;5.40;5.00;;;25.60;99.90;;;;;;5067956;28;20418;-79
2023/08/25 13:05:11;;;;;;;6.03;5.10;;;25.70;99.90;;;;;;5067448;28;20457;-77
2023/08/25 13:07:43;;;;;;;5.70;5.20;;;25.80;99.90;;;;;;5066867;28;20469;-78
2023/08/25 13:10:14;;;;;;;5.10;4.67;;;25.90;99.90;;;;;;5063058;28;20826;-79
2023/08/25 13:12:44;;;;;;;5.77;5.27;;;25.90;99.90;;;;;;5067626;28;20472;-80